Time;durP1;ratioP1;P1;durP2;ratioP2;P2;SDS_P1;SDS_P2;PMS_P1;PMS_P2;Temp;Humidity;BMP_temperature;BMP_pressure;BME280_temperature;BME280_humidity;BME280_pressure;Samples;Min_cycle;Max_cycle;Signal;HPM_P1;HPM_P2
2023/10/15 00:00:13;;;;;;;8.48;1.45;;;9.50;99.90;;;;;;5056937;28;20040;-69
2023/10/15 00:02:41;;;;;;;9.32;1.83;;;9.40;99.90;;;;;;5050910;28;20137;-69
2023/10/15 00:05:08;;;;;;;5.32;1.33;;;;;;;;;;5052614;28;20048;-69
2023/10/15 00:07:34;;;;;;;11.38;1.65;;;;;;;;;;5070017;28;20084;-69
2023/10/15 00:10:00;;;;;;;8.27;1.52;;;;;;;;;;5071557;28;20051;-69
2023/10/15 00:12:26;;;;;;;6.40;1.48;;;;;;;;;;5055234;28;20036;-68
2023/10/15 00:14:52;;;;;;;5.95;1.20;;;;;;;;;;5071278;28;20039;-69
2023/10/15 00:17:18;;;;;;;7.90;2.03;;;;;;;;;;5052703;28;20091;-69
2023/10/15 00:19:45;;;;;;;4.43;1.45;;;;;;;;;;5042740;28;20052;-69
2023/10/15 00:22:11;;;;;;;7.45;1.70;;;;;;;;;;5067595;28;20747;-69
2023/10/15 00:24:37;;;;;;;9.35;1.70;;;;;;;;;;5046130;28;20080;-69
2023/10/15 00:27:04;;;;;;;8.38;1.80;;;;;;;;;;5036253;28;20045;-69
2023/10/15 00:29:30;;;;;;;11.55;1.50;;;;;;;;;;5058407;28;20082;-68
2023/10/15 00:31:56;;;;;;;7.07;1.27;;;;;;;;;;5071785;28;20123;-69
2023/10/15 00:34:22;;;;;;;8.00;1.60;;;;;;;;;;5054105;28;20037;-69
2023/10/15 00:36:48;;;;;;;13.23;2.05;;;;;;;;;;5053214;28;20037;-69
2023/10/15 00:39:21;;;;;;;10.50;1.60;;;;;;;;;;5055316;28;20044;-69
2023/10/15 00:41:47;;;;;;;8.55;1.48;;;9.50;99.90;;;;;;5054754;28;20045;-69
2023/10/15 00:44:14;;;;;;;9.05;1.70;;;;;;;;;;5058005;28;20440;-69
2023/10/15 00:46:41;;;;;;;6.88;2.58;;;9.20;99.90;;;;;;5071113;28;20110;-69
2023/10/15 00:49:12;;;;;;;7.25;1.20;;;;;;;;;;5050182;28;20048;-69
2023/10/15 00:51:41;;;;;;;4.53;1.13;;;;;;;;;;5073540;28;20460;-69
2023/10/15 00:54:12;;;;;;;5.57;1.23;;;;;;;;;;5072466;28;20049;-69
2023/10/15 00:56:39;;;;;;;4.03;1.02;;;;;;;;;;5074775;28;20126;-69
2023/10/15 01:01:37;;;;;;;5.25;1.10;;;;;;;;;;5055413;28;20051;-69
2023/10/15 01:04:06;;;;;;;2.70;1.15;;;;;;;;;;5067967;28;20144;-69
2023/10/15 01:06:37;;;;;;;3.30;1.10;;;9.20;99.90;;;;;;5056084;28;20143;-69
2023/10/15 01:09:27;;;;;;;3.80;1.05;;;9.20;99.90;;;;;;5038710;28;20041;-69
2023/10/15 01:11:56;;;;;;;8.82;1.25;;;;;;;;;;5040716;28;20496;-69
2023/10/15 01:14:31;;;;;;;7.80;1.50;;;;;;;;;;5055719;28;20098;-69
2023/10/15 01:16:59;;;;;;;5.22;1.35;;;;;;;;;;5038166;28;20140;-69
2023/10/15 01:19:33;;;;;;;7.65;1.10;;;;;;;;;;5052583;28;20051;-69
2023/10/15 01:22:02;;;;;;;6.38;1.50;;;;;;;;;;5054702;28;20378;-69
2023/10/15 01:24:28;;;;;;;9.05;1.60;;;;;;;;;;5058969;28;20101;-69
2023/10/15 01:29:34;;;;;;;4.85;1.08;;;;;;;;;;5054788;28;20080;-69
2023/10/15 01:32:07;;;;;;;6.45;1.67;;;9.20;99.90;;;;;;5074872;28;20094;-69
2023/10/15 01:34:44;;;;;;;7.97;1.65;;;;;;;;;;5067126;28;20025;-69
2023/10/15 01:39:48;;;;;;;7.13;1.20;;;;;;;;;;5073464;28;20503;-69
2023/10/15 01:44:55;;;;;;;6.28;1.20;;;;;;;;;;5062607;28;20127;-68
2023/10/15 01:47:28;;;;;;;5.88;1.00;;;;;;;;;;5054169;28;20057;-69
2023/10/15 01:49:56;;;;;;;6.00;1.20;;;9.20;99.90;;;;;;5056621;28;20062;-68
2023/10/15 01:52:30;;;;;;;8.18;1.60;;;;;;;;;;5056156;28;20029;-69
2023/10/15 01:55:02;;;;;;;11.80;1.33;;;;;;;;;;5055240;28;20068;-69
2023/10/15 01:57:29;;;;;;;9.85;1.33;;;;;;;;;;5056648;28;20040;-69
2023/10/15 02:00:05;;;;;;;7.32;1.15;;;;;;;;;;5055639;28;20040;-69
2023/10/15 02:02:32;;;;;;;5.63;1.17;;;;;;;;;;5053823;28;20041;-69
2023/10/15 02:04:59;;;;;;;4.88;1.00;;;;;;;;;;5068373;28;20045;-69
2023/10/15 02:07:25;;;;;;;5.15;1.00;;;;;;;;;;5054382;28;20504;-69
2023/10/15 02:09:51;;;;;;;4.57;1.10;;;;;;;;;;5037490;28;20041;-69
2023/10/15 02:12:18;;;;;;;6.03;1.33;;;8.70;99.90;;;;;;5068826;28;20043;-69
2023/10/15 02:14:47;;;;;;;4.10;1.20;;;8.70;99.90;;;;;;5066257;28;20036;-69
2023/10/15 02:17:18;;;;;;;1.85;0.85;;;8.60;99.90;;;;;;5040569;28;20044;-69
2023/10/15 02:19:47;;;;;;;5.90;1.00;;;;;;;;;;5054840;28;20045;-69
2023/10/15 02:22:13;;;;;;;4.35;1.10;;;;;;;;;;5068629;28;20123;-70
2023/10/15 02:24:49;;;;;;;3.78;0.90;;;8.60;99.90;;;;;;5073023;28;20079;-69
2023/10/15 02:27:27;;;;;;;2.15;0.77;;;;;;;;;;5057998;28;20374;-69
2023/10/15 02:29:53;;;;;;;2.85;0.80;;;;;;;;;;5045633;28;20397;-69
2023/10/15 02:32:21;;;;;;;5.40;0.98;;;8.30;99.90;;;;;;5064576;28;20068;-69
2023/10/15 02:34:50;;;;;;;3.30;0.65;;;;;;;;;;5073203;28;20037;-69
2023/10/15 02:37:23;;;;;;;2.30;0.80;;;;;;;;;;5059732;28;20040;-69
2023/10/15 02:39:50;;;;;;;2.50;1.00;;;8.30;99.90;;;;;;5053177;28;20049;-69
2023/10/15 02:42:17;;;;;;;7.90;2.05;;;;;;;;;;5064624;28;20039;-69
2023/10/15 02:44:43;;;;;;;6.75;0.95;;;;;;;;;;5072914;28;20045;-69
2023/10/15 02:49:54;;;;;;;4.78;0.90;;;;;;;;;;5063871;28;20044;-69
2023/10/15 02:52:23;;;;;;;3.03;0.85;;;;;;;;;;5060648;28;20045;-69
2023/10/15 02:54:49;;;;;;;4.68;1.00;;;;;;;;;;5036784;28;20496;-69
2023/10/15 02:57:16;;;;;;;5.13;0.95;;;;;;;;;;5047761;28;20040;-69
2023/10/15 02:59:51;;;;;;;2.35;0.77;;;;;;;;;;5064283;28;20044;-69
2023/10/15 03:02:21;;;;;;;2.05;0.75;;;;;;;;;;5047461;28;20127;-69
2023/10/15 03:04:55;;;;;;;2.72;0.90;;;;;;;;;;5059713;28;20083;-69
2023/10/15 03:07:30;;;;;;;3.22;0.90;;;8.20;99.90;;;;;;5042859;28;20044;-69
2023/10/15 03:09:57;;;;;;;3.67;1.05;;;;;;;;;;5035980;28;20033;-69
2023/10/15 03:12:33;;;;;;;2.70;1.20;;;;;;;;;;5058042;28;20040;-69
2023/10/15 03:15:00;;;;;;;3.70;0.85;;;;;;;;;;5049980;28;20047;-69
2023/10/15 03:17:29;;;;;;;4.15;1.00;;;;;;;;;;5060325;28;20041;-69
2023/10/15 03:22:46;;;;;;;3.47;1.20;;;8.10;99.90;;;;;;5050066;28;20040;-68
2023/10/15 03:25:16;;;;;;;4.93;1.10;;;;;;;;;;5052010;28;20079;-68
2023/10/15 03:27:46;;;;;;;4.32;0.82;;;8.20;99.90;;;;;;5055485;28;20043;-68
2023/10/15 03:30:13;;;;;;;2.42;1.08;;;;;;;;;;5041523;28;20045;-68
2023/10/15 03:32:46;;;;;;;7.03;1.55;;;;;;;;;;5052051;28;20049;-68
2023/10/15 03:35:54;;;;;;;;;;;;;;;;;;5059219;28;20032;-68
2023/10/15 03:38:06;;;;;;;3.70;0.98;;;;;;;;;;5052091;28;19965;-68
2023/10/15 03:40:40;;;;;;;4.45;1.02;;;;;;;;;;5068116;28;20098;-68
2023/10/15 03:43:06;;;;;;;5.30;1.05;;;;;;;;;;5072229;28;20040;-68
2023/10/15 03:45:50;;;;;;;5.65;1.15;;;8.10;99.90;;;;;;5049607;28;20040;-68
2023/10/15 03:48:28;;;;;;;3.35;1.00;;;7.90;99.90;;;;;;5063878;28;20063;-68
2023/10/15 03:50:58;;;;;;;4.80;1.42;;;;;;;;;;5069694;28;20392;-68
2023/10/15 03:53:27;;;;;;;5.30;1.23;;;;;;;;;;5070292;28;20116;-68
2023/10/15 03:56:06;;;;;;;2.78;1.05;;;;;;;;;;5055169;28;20044;-69
2023/10/15 03:58:32;;;;;;;5.90;1.20;;;;;;;;;;5052108;28;20040;-68
2023/10/15 04:01:17;;;;;;;10.07;1.35;;;;;;;;;;5051690;28;20048;-69
2023/10/15 04:03:50;;;;;;;5.25;1.25;;;8.10;99.90;;;;;;5060186;28;20037;-69
2023/10/15 04:06:17;;;;;;;9.30;1.30;;;;;;;;;;5053595;28;20632;-68
2023/10/15 04:09:09;;;;;;;12.68;1.40;;;;;;;;;;5064727;28;20093;-69
2023/10/15 04:11:42;;;;;;;9.95;1.65;;;;;;;;;;5070117;28;20451;-69
2023/10/15 04:14:13;;;;;;;;;;;8.40;99.90;;;;;;5054183;28;20052;-69
2023/10/15 04:16:41;;;;;;;5.90;1.25;;;;;;;;;;5053639;28;19924;-68
2023/10/15 04:19:07;;;;;;;4.60;1.27;;;;;;;;;;5069715;28;20049;-69
2023/10/15 04:21:38;;;;;;;3.15;1.08;;;;;;;;;;5069792;28;20036;-69
2023/10/15 04:24:06;;;;;;;3.92;1.23;;;;;;;;;;5053438;28;20075;-69
2023/10/15 04:26:35;;;;;;;2.80;0.82;;;;;;;;;;5071866;28;20051;-69
2023/10/15 04:29:15;;;;;;;8.10;1.13;;;;;;;;;;5059123;28;20052;-68
2023/10/15 04:31:42;;;;;;;5.78;1.00;;;;;;;;;;5071120;28;20040;-69
2023/10/15 04:34:14;;;;;;;5.80;1.15;;;;;;;;;;5070370;28;20036;-69
2023/10/15 04:36:40;;;;;;;9.75;1.33;;;;;;;;;;5071342;28;20055;-70
2023/10/15 04:39:13;;;;;;;2.25;0.80;;;;;;;;;;5059338;28;20450;-69
2023/10/15 04:41:40;;;;;;;4.82;0.82;;;;;;;;;;5052682;28;20400;-69
2023/10/15 04:44:11;;;;;;;5.85;1.92;;;;;;;;;;5060806;28;20048;-69
2023/10/15 04:46:41;;;;;;;1.63;0.80;;;;;;;;;;5056953;28;20060;-69
2023/10/15 04:49:08;;;;;;;3.63;0.90;;;;;;;;;;5066566;28;20039;-69
2023/10/15 04:51:43;;;;;;;2.75;0.82;;;;;;;;;;5048083;28;20052;-69
2023/10/15 04:54:10;;;;;;;10.57;1.10;;;8.30;99.90;;;;;;5063056;28;20033;-69
2023/10/15 04:56:36;;;;;;;6.63;1.00;;;;;;;;;;5058449;28;20040;-69
2023/10/15 04:59:03;;;;;;;5.25;1.00;;;;;;;;;;5058726;28;20502;-69
2023/10/15 05:01:30;;;;;;;2.22;0.80;;;;;;;;;;5069412;28;20087;-69
2023/10/15 05:03:56;;;;;;;8.25;0.90;;;;;;;;;;5056782;28;20422;-69
2023/10/15 05:06:22;;;;;;;5.45;1.30;;;;;;;;;;5057296;28;20082;-69
2023/10/15 05:08:48;;;;;;;5.07;1.10;;;;;;;;;;5073331;28;20070;-69
2023/10/15 05:11:21;;;;;;;6.97;1.50;;;;;;;;;;5071061;28;20189;-69
2023/10/15 05:13:47;;;;;;;;;;;;;;;;;;5067821;28;20041;-69
2023/10/15 05:16:14;;;;;;;4.70;1.10;;;;;;;;;;5060256;28;20014;-69
2023/10/15 05:18:40;;;;;;;6.03;1.70;;;;;;;;;;5061633;28;20044;-69
2023/10/15 05:21:06;;;;;;;3.42;1.02;;;;;;;;;;5044219;28;20044;-70
2023/10/15 05:23:33;;;;;;;5.80;1.17;;;;;;;;;;5064458;28;20036;-69
2023/10/15 05:25:59;;;;;;;2.75;0.90;;;;;;;;;;5040205;28;20049;-69
2023/10/15 05:28:26;;;;;;;5.95;0.95;;;;;;;;;;5058760;28;20039;-69
2023/10/15 05:30:52;;;;;;;3.03;1.10;;;;;;;;;;5060116;28;20439;-69
2023/10/15 05:33:19;;;;;;;4.53;0.80;;;;;;;;;;5059279;28;20114;-69
2023/10/15 05:35:49;;;;;;;2.38;0.77;;;;;;;;;;5058050;28;20086;-69
2023/10/15 05:38:16;;;;;;;3.13;1.05;;;;;;;;;;5066199;28;20049;-69
2023/10/15 05:40:44;;;;;;;3.78;0.80;;;;;;;;;;5064429;28;20040;-69
2023/10/15 05:43:10;;;;;;;3.85;1.00;;;;;;;;;;5054689;28;20088;-69
2023/10/15 05:45:37;;;;;;;3.30;1.08;;;;;;;;;;5056759;28;20040;-69
2023/10/15 05:48:03;;;;;;;5.18;1.27;;;;;;;;;;5060212;28;20457;-69
2023/10/15 05:50:29;;;;;;;2.53;1.00;;;;;;;;;;5072623;28;20407;-69
2023/10/15 05:52:56;;;;;;;4.22;0.95;;;;;;;;;;5073423;28;20036;-69
2023/10/15 05:55:22;;;;;;;5.20;1.08;;;;;;;;;;5061977;28;20041;-69
2023/10/15 05:57:48;;;;;;;6.57;0.90;;;;;;;;;;5054201;28;20409;-69
2023/10/15 06:00:18;;;;;;;1.88;0.95;;;;;;;;;;5069023;28;20047;-69
2023/10/15 06:02:48;;;;;;;2.33;0.93;;;;;;;;;;5056308;28;20044;-69
2023/10/15 06:05:14;;;;;;;2.90;1.00;;;8.10;99.90;;;;;;5047973;28;20056;-69
2023/10/15 06:07:44;;;;;;;2.78;1.17;;;;;;;;;;5053525;28;20481;-69
2023/10/15 06:10:14;;;;;;;1.98;0.90;;;;;;;;;;5054540;28;20045;-69
2023/10/15 06:12:40;;;;;;;1.70;0.80;;;;;;;;;;5056084;28;20076;-69
2023/10/15 06:15:07;;;;;;;3.17;0.90;;;8.30;99.90;;;;;;5069473;28;20082;-69
2023/10/15 06:17:34;;;;;;;4.38;1.05;;;;;;;;;;5056388;28;20040;-69
2023/10/15 06:20:12;;;;;;;3.40;1.00;;;;;;;;;;5065759;28;20465;-70
2023/10/15 06:22:39;;;;;;;3.60;1.00;;;;;;;;;;5042109;28;20044;-76
2023/10/15 06:25:08;;;;;;;4.55;1.30;;;;;;;;;;5036647;28;20389;-75
2023/10/15 06:27:35;;;;;;;9.65;2.67;;;;;;;;;;5037246;28;20124;-75
2023/10/15 06:30:05;;;;;;;5.82;1.50;;;8.10;99.90;;;;;;5062917;28;20043;-76
2023/10/15 06:32:31;;;;;;;5.93;1.20;;;;;;;;;;5072850;28;20033;-75
2023/10/15 06:34:57;;;;;;;4.53;1.33;;;;;;;;;;5071883;28;20155;-75
2023/10/15 06:37:23;;;;;;;5.57;1.33;;;;;;;;;;5063978;28;20132;-76
2023/10/15 06:39:49;;;;;;;17.73;2.17;;;;;;;;;;5042483;28;20498;-78
2023/10/15 06:42:15;;;;;;;12.05;2.10;;;;;;;;;;5056737;28;20071;-78
2023/10/15 06:44:42;;;;;;;12.60;2.30;;;;;;;;;;5047664;28;20119;-78
2023/10/15 06:47:08;;;;;;;8.35;1.55;;;;;;;;;;5056683;28;20426;-75
2023/10/15 06:49:34;;;;;;;12.18;1.65;;;;;;;;;;5061815;28;20489;-78
2023/10/15 06:52:03;;;;;;;6.97;1.50;;;;;;;;;;5050957;28;20095;-79
2023/10/15 06:54:29;;;;;;;3.13;1.00;;;;;;;;;;5049325;28;20033;-77
2023/10/15 06:56:55;;;;;;;6.13;1.23;;;;;;;;;;5072937;28;20086;-77
2023/10/15 06:59:22;;;;;;;5.25;1.05;;;;;;;;;;5071039;28;20496;-78
2023/10/15 07:01:48;;;;;;;11.77;1.27;;;;;;;;;;5051231;28;20068;-79
2023/10/15 07:04:14;;;;;;;7.75;0.80;;;;;;;;;;5055687;28;20555;-78
2023/10/15 07:06:40;;;;;;;4.35;1.20;;;;;;;;;;5072097;28;20040;-77
2023/10/15 07:09:06;;;;;;;4.75;1.02;;;7.90;99.90;;;;;;5054467;28;20039;-76
2023/10/15 07:11:33;;;;;;;8.35;1.05;;;;;;;;;;5071290;28;20128;-76
2023/10/15 07:14:02;;;;;;;8.48;1.20;;;;;;;;;;5070826;28;20072;-76
2023/10/15 07:16:28;;;;;;;5.75;1.13;;;;;;;;;;5072438;28;20048;-76
2023/10/15 07:18:54;;;;;;;2.55;0.70;;;;;;;;;;5071585;28;20101;-76
2023/10/15 07:21:20;;;;;;;3.60;0.90;;;;;;;;;;5045210;28;20037;-77
2023/10/15 07:23:51;;;;;;;3.22;1.00;;;;;;;;;;5066082;28;20507;-69
2023/10/15 07:26:17;;;;;;;8.00;1.00;;;;;;;;;;5053835;28;20106;-69
2023/10/15 07:28:43;;;;;;;3.78;0.95;;;;;;;;;;5064434;28;20043;-73
2023/10/15 07:31:09;;;;;;;2.50;0.90;;;;;;;;;;5050484;28;20037;-72
2023/10/15 07:33:35;;;;;;;5.35;1.38;;;;;;;;;;5067365;28;20036;-73
2023/10/15 07:36:02;;;;;;;3.75;1.20;;;;;;;;;;5055882;28;20120;-69
2023/10/15 07:38:28;;;;;;;6.00;1.00;;;;;;;;;;5056946;28;20040;-70
2023/10/15 07:40:57;;;;;;;4.80;0.95;;;;;;;;;;5051915;28;20044;-70
2023/10/15 07:43:23;;;;;;;6.95;1.10;;;;;;;;;;5060938;28;20048;-70
2023/10/15 07:45:49;;;;;;;8.55;1.73;;;;;;;;;;5065395;28;20040;-69
2023/10/15 07:48:15;;;;;;;8.77;1.60;;;;;;;;;;5043252;28;20064;-69
2023/10/15 07:50:45;;;;;;;2.97;1.00;;;;;;;;;;5052488;28;20036;-69
2023/10/15 07:53:12;;;;;;;5.85;1.45;;;;;;;;;;5064166;28;20043;-71
2023/10/15 07:55:38;;;;;;;4.88;1.02;;;;;;;;;;5063131;28;20048;-69
2023/10/15 07:58:04;;;;;;;8.05;1.30;;;;;;;;;;5065635;28;20039;-69
2023/10/15 08:00:30;;;;;;;3.13;1.00;;;;;;;;;;5063603;28;20081;-70
2023/10/15 08:02:57;;;;;;;11.25;2.30;;;;;;;;;;5071165;28;20377;-69
2023/10/15 08:05:24;;;;;;;6.38;1.58;;;;;;;;;;5069691;28;20044;-69
2023/10/15 08:07:51;;;;;;;8.35;1.30;;;;;;;;;;5063874;28;20075;-69
2023/10/15 08:10:20;;;;;;;5.75;1.17;;;;;;;;;;5068263;28;20041;-69
2023/10/15 08:12:48;;;;;;;7.63;1.27;;;;;;;;;;5066044;28;20093;-69
2023/10/15 08:15:14;;;;;;;5.28;1.20;;;;;;;;;;5071445;28;20048;-69
2023/10/15 08:17:41;;;;;;;7.55;1.13;;;;;;;;;;5063222;28;20048;-69
2023/10/15 08:20:09;;;;;;;4.80;1.10;;;;;;;;;;5057503;28;20116;-69
2023/10/15 08:22:36;;;;;;;8.05;1.20;;;;;;;;;;5052327;28;20082;-69
2023/10/15 08:25:02;;;;;;;6.90;1.10;;;;;;;;;;5047739;28;20044;-69
2023/10/15 08:27:28;;;;;;;6.07;1.10;;;;;;;;;;5061970;28;20074;-69
2023/10/15 08:29:54;;;;;;;2.17;0.90;;;;;;;;;;5070319;28;20108;-69
2023/10/15 08:32:21;;;;;;;7.82;1.88;;;;;;;;;;5066982;28;20116;-69
2023/10/15 08:34:48;;;;;;;3.42;1.15;;;8.80;99.90;;;;;;5057976;28;20087;-69
2023/10/15 08:37:14;;;;;;;6.72;1.73;;;;;;;;;;5035184;28;20059;-68
2023/10/15 08:39:40;;;;;;;7.97;1.10;;;;;;;;;;5062837;28;20067;-69
2023/10/15 08:42:20;;;;;;;7.53;1.35;;;9.20;99.90;;;;;;5043752;28;20547;-69
2023/10/15 08:44:49;;;;;;;11.38;1.60;;;;;;;;;;5068430;28;20126;-69
2023/10/15 08:47:16;;;;;;;5.57;1.15;;;;;;;;;;5056459;28;20189;-69
2023/10/15 08:49:51;;;;;;;4.20;0.98;;;9.50;99.90;;;;;;5059735;28;20048;-69
2023/10/15 08:52:19;;;;;;;6.85;1.25;;;9.60;99.90;;;;;;5060605;28;20389;-69
2023/10/15 08:54:46;;;;;;;4.88;1.15;;;;;;;;;;5061609;28;20361;-69
2023/10/15 08:57:13;;;;;;;9.95;1.30;;;;;;;;;;5044280;28;20049;-69
2023/10/15 08:59:41;;;;;;;8.82;1.60;;;;;;;;;;5037905;28;20493;-69
2023/10/15 09:02:08;;;;;;;5.45;1.13;;;10.10;99.90;;;;;;5039398;28;20048;-69
2023/10/15 09:04:35;;;;;;;3.22;1.02;;;;;;;;;;5064620;28;20056;-69
2023/10/15 09:07:01;;;;;;;5.15;1.20;;;;;;;;;;5063786;28;20087;-69
2023/10/15 09:09:32;;;;;;;10.95;1.30;;;10.20;99.90;;;;;;5060260;28;20048;-68
2023/10/15 09:11:58;;;;;;;8.32;1.52;;;;;;;;;;5066150;28;20479;-68
2023/10/15 09:14:37;;;;;;;9.88;2.10;;;;;;;;;;5066088;28;20036;-69
2023/10/15 09:17:03;;;;;;;11.73;1.45;;;;;;;;;;5066247;28;20036;-69
2023/10/15 09:19:32;;;;;;;5.18;1.10;;;;;;;;;;5055181;28;20385;-68
2023/10/15 09:21:58;;;;;;;8.93;1.30;;;;;;;;;;5063186;28;20037;-68
2023/10/15 09:24:24;;;;;;;7.18;1.48;;;;;;;;;;5067804;28;20040;-68
2023/10/15 09:26:50;;;;;;;9.05;1.67;;;;;;;;;;5065001;28;20101;-69
2023/10/15 09:29:20;;;;;;;5.18;1.27;;;;;;;;;;5057059;28;20492;-69
2023/10/15 09:31:47;;;;;;;5.82;1.20;;;;;;;;;;5059184;28;20033;-70
2023/10/15 09:34:13;;;;;;;4.18;1.20;;;;;;;;;;5063291;28;20073;-70
2023/10/15 09:36:39;;;;;;;9.05;1.70;;;;;;;;;;5060268;28;20049;-70
2023/10/15 09:39:12;;;;;;;10.20;2.17;;;;;;;;;;5054822;28;20120;-70
2023/10/15 09:41:42;;;;;;;6.10;1.35;;;;;;;;;;5056411;28;20106;-70
2023/10/15 09:44:14;;;;;;;8.65;1.60;;;9.60;99.90;;;;;;5060489;28;20045;-70
2023/10/15 09:46:43;;;;;;;5.68;1.33;;;9.70;99.90;;;;;;5063003;28;20057;-70
2023/10/15 09:49:10;;;;;;;4.05;1.00;;;;;;;;;;5058128;28;20040;-70
2023/10/15 09:51:37;;;;;;;2.10;0.85;;;;;;;;;;5055536;28;20060;-70
2023/10/15 09:54:04;;;;;;;2.97;0.80;;;;;;;;;;5058326;28;20446;-70
2023/10/15 09:56:30;;;;;;;1.70;0.80;;;9.70;99.90;;;;;;5058067;28;20078;-71
2023/10/15 09:58:56;;;;;;;2.65;0.82;;;;;;;;;;5056834;28;20060;-71
2023/10/15 10:01:28;;;;;;;7.10;2.08;;;10.00;99.90;;;;;;5062705;28;20043;-70
2023/10/15 10:04:17;;;;;;;8.00;2.35;;;;;;;;;;5057525;28;20045;-70
2023/10/15 10:07:36;;;;;;;9.40;1.60;;;9.30;99.90;;;;;;5057591;28;20053;-70
2023/10/15 10:10:04;;;;;;;6.70;1.42;;;;;;;;;;5042642;28;20768;-70
2023/10/15 10:12:36;;;;;;;7.72;2.42;;;;;;;;;;5060533;28;20035;-69
2023/10/15 10:15:11;;;;;;;4.13;1.05;;;9.10;99.90;;;;;;5056897;28;20129;-69
2023/10/15 10:17:41;;;;;;;8.05;1.40;;;;;;;;;;5037185;28;20037;-70
2023/10/15 10:20:13;;;;;;;4.32;1.25;;;;;;;;;;5036153;28;20103;-70
2023/10/15 10:22:39;;;;;;;;;;;;;;;;;;5057428;28;20037;-70
2023/10/15 10:25:07;;;;;;;6.47;1.30;;;9.30;99.90;;;;;;5058920;28;19912;-69
2023/10/15 10:27:43;;;;;;;4.15;1.20;;;10.80;99.90;;;;;;5057670;28;20048;-70
2023/10/15 10:30:23;;;;;;;4.95;1.35;;;;;;;;;;5054488;28;20033;-69
2023/10/15 10:32:50;;;;;;;5.75;1.08;;;9.80;99.90;;;;;;5062198;28;20064;-69
2023/10/15 10:35:23;;;;;;;4.40;1.23;;;;;;;;;;5055667;28;20149;-74
2023/10/15 10:38:03;;;;;;;7.68;1.20;;;;;;;;;;5061314;28;20044;-69
2023/10/15 10:40:42;;;;;;;7.68;1.60;;;;;;;;;;5060237;28;20036;-70
2023/10/15 10:43:16;;;;;;;7.90;1.42;;;10.10;99.90;;;;;;5060465;28;20115;-69
2023/10/15 10:46:01;;;;;;;4.20;1.25;;;;;;;;;;5055521;28;20040;-69
2023/10/15 10:48:28;;;;;;;6.25;1.30;;;9.40;99.90;;;;;;5063376;28;20056;-69
2023/10/15 10:51:22;;;;;;;3.95;1.05;;;;;;;;;;5058203;28;20083;-70
2023/10/15 10:53:58;;;;;;;6.80;1.40;;;;;;;;;;5064605;28;20116;-69
2023/10/15 10:56:44;;;;;;;6.75;1.10;;;9.60;99.90;;;;;;5055846;28;20045;-69
2023/10/15 10:59:12;;;;;;;4.63;1.20;;;9.70;99.90;;;;;;5058497;28;20045;-69
2023/10/15 11:01:39;;;;;;;6.75;1.27;;;9.80;99.90;;;;;;5064647;28;20047;-70
2023/10/15 11:04:10;;;;;;;4.05;1.10;;;;;;;;;;5072038;28;20502;-69
2023/10/15 11:06:45;;;;;;;5.20;1.25;;;10.00;99.90;;;;;;5056020;28;20040;-69
2023/10/15 11:09:22;;;;;;;3.30;1.05;;;;;;;;;;5054911;28;20053;-71
2023/10/15 11:11:50;;;;;;;4.85;1.30;;;10.40;99.90;;;;;;5064372;28;20070;-69
2023/10/15 11:14:18;;;;;;;8.18;1.23;;;10.60;99.90;;;;;;5069110;28;20040;-69
2023/10/15 11:16:47;;;;;;;6.93;2.25;;;;;;;;;;5072694;28;20048;-70
2023/10/15 11:19:33;;;;;;;5.75;1.27;;;10.80;99.90;;;;;;5058157;28;20107;-70
2023/10/15 11:21:59;;;;;;;4.00;1.20;;;;;;;;;;5044812;28;20114;-69
2023/10/15 11:24:28;;;;;;;5.95;1.20;;;;;;;;;;5058754;28;20098;-69
2023/10/15 11:26:55;;;;;;;10.35;1.25;;;;;;;;;;5062141;28;20503;-69
2023/10/15 11:29:24;;;;;;;6.88;1.25;;;;;;;;;;5037928;28;20099;-69
2023/10/15 11:31:56;;;;;;;7.07;1.50;;;11.40;99.90;;;;;;5063962;28;20040;-69
2023/10/15 11:34:24;;;;;;;4.00;1.13;;;;;;;;;;5070261;28;20103;-69
2023/10/15 11:36:52;;;;;;;4.45;0.90;;;11.20;99.90;;;;;;5059105;28;20412;-69
2023/10/15 11:39:19;;;;;;;7.65;1.27;;;;;;;;;;5061950;28;20048;-69
2023/10/15 11:41:49;;;;;;;4.80;1.10;;;10.90;99.90;;;;;;5060184;28;20095;-69
2023/10/15 11:44:16;;;;;;;5.45;1.00;;;;;;;;;;5055427;28;20041;-69
2023/10/15 11:46:42;;;;;;;5.25;1.00;;;;;;;;;;5061602;28;20097;-69
2023/10/15 11:49:09;;;;;;;3.45;0.70;;;;;;;;;;5051691;28;20051;-69
2023/10/15 11:51:36;;;;;;;2.92;0.60;;;;;;;;;;5058073;28;20120;-69
2023/10/15 11:54:02;;;;;;;4.00;1.20;;;;;;;;;;5055458;28;20399;-69
2023/10/15 11:56:31;;;;;;;3.20;0.80;;;;;;;;;;5059566;28;20111;-69
2023/10/15 11:58:57;;;;;;;4.03;1.00;;;;;;;;;;5059909;28;20591;-69
2023/10/15 12:01:24;;;;;;;7.25;1.92;;;;;;;;;;5039066;28;20044;-69
2023/10/15 12:03:50;;;;;;;3.40;1.00;;;;;;;;;;5041162;28;20083;-69
2023/10/15 12:06:16;;;;;;;6.18;1.65;;;;;;;;;;5065388;28;20464;-69
2023/10/15 12:08:43;;;;;;;4.40;1.20;;;;;;;;;;5057476;28;20074;-69
2023/10/15 12:11:09;;;;;;;7.90;1.33;;;;;;;;;;5054720;28;20516;-69
2023/10/15 12:13:35;;;;;;;10.70;1.55;;;;;;;;;;5062340;28;20094;-69
2023/10/15 12:16:02;;;;;;;3.50;1.15;;;;;;;;;;5055610;28;20142;-69
2023/10/15 12:18:28;;;;;;;4.80;1.33;;;;;;;;;;5064130;28;20480;-69
2023/10/15 12:20:54;;;;;;;7.70;1.10;;;;;;;;;;5054600;28;20074;-69
2023/10/15 12:23:20;;;;;;;4.32;1.02;;;;;;;;;;5060694;28;20033;-69
2023/10/15 12:25:47;;;;;;;2.83;1.00;;;;;;;;;;5062781;28;20079;-69
2023/10/15 12:28:14;;;;;;;6.25;1.20;;;;;;;;;;5053216;28;20424;-70
2023/10/15 12:30:40;;;;;;;4.63;1.00;;;;;;;;;;5054238;28;20044;-69
2023/10/15 12:33:07;;;;;;;6.13;1.23;;;;;;;;;;5062355;28;20041;-69
2023/10/15 12:35:33;;;;;;;4.15;1.02;;;;;;;;;;5054835;28;20044;-69
2023/10/15 12:38:02;;;;;;;3.70;1.52;;;;;;;;;;5072077;28;20512;-69
2023/10/15 12:40:32;;;;;;;4.13;0.90;;;;;;;;;;5070983;28;20041;-69
2023/10/15 12:43:08;;;;;;;5.93;1.00;;;10.90;99.50;;;;;;5071724;28;20036;-69
2023/10/15 12:45:34;;;;;;;4.60;1.02;;;;;;;;;;5067660;28;20079;-70
2023/10/15 12:48:01;;;;;;;5.75;1.60;;;;;;;;;;5073657;28;20052;-70
2023/10/15 12:50:27;;;;;;;5.10;1.05;;;10.90;99.80;;;;;;5069187;28;20127;-69
2023/10/15 12:52:56;;;;;;;4.05;0.95;;;;;;;;;;5058988;28;20047;-69
2023/10/15 12:55:25;;;;;;;3.45;1.00;;;;;;;;;;5070622;28;20446;-69
2023/10/15 12:57:51;;;;;;;3.53;0.90;;;;;;;;;;5073523;28;20048;-69
2023/10/15 13:00:19;;;;;;;4.90;1.30;;;;;;;;;;5063063;28;20128;-69
2023/10/15 13:02:48;;;;;;;4.82;0.88;;;;;;;;;;5027605;28;20037;-69
2023/10/15 13:05:15;;;;;;;4.28;1.00;;;;;;;;;;5066876;28;20044;-69
2023/10/15 13:07:41;;;;;;;5.57;1.25;;;;;;;;;;5064966;28;20496;-69
2023/10/15 13:10:09;;;;;;;7.47;1.38;;;11.80;99.90;;;;;;5038531;28;20033;-69
2023/10/15 13:12:35;;;;;;;4.90;1.50;;;;;;;;;;5056070;28;20033;-69
2023/10/15 13:15:02;;;;;;;10.27;2.95;;;;;;;;;;5053928;28;20515;-68
2023/10/15 13:17:28;;;;;;;9.63;1.70;;;;;;;;;;5061479;28;20500;-69
2023/10/15 13:19:54;;;;;;;8.88;1.42;;;;;;;;;;5046320;28;20047;-69
2023/10/15 13:22:23;;;;;;;5.40;1.30;;;;;;;;;;5070141;28;20041;-69
2023/10/15 13:24:49;;;;;;;5.07;1.20;;;;;;;;;;5047875;28;20067;-69
2023/10/15 13:27:15;;;;;;;7.15;1.25;;;;;;;;;;5059768;28;20045;-69
2023/10/15 13:29:41;;;;;;;4.70;1.10;;;;;;;;;;5045436;28;20132;-69
2023/10/15 13:32:07;;;;;;;6.97;1.45;;;;;;;;;;5049768;28;20103;-69
2023/10/15 13:34:33;;;;;;;6.22;1.33;;;;;;;;;;5064120;28;20131;-69
2023/10/15 13:37:01;;;;;;;6.43;1.92;;;;;;;;;;5063937;28;20123;-69
2023/10/15 13:39:28;;;;;;;5.20;1.20;;;;;;;;;;5062930;28;20584;-68
2023/10/15 13:41:55;;;;;;;5.82;1.10;;;;;;;;;;5062863;28;20048;-68
2023/10/15 13:44:21;;;;;;;4.97;1.00;;;;;;;;;;5064145;28;20044;-69
2023/10/15 13:46:48;;;;;;;5.63;1.23;;;;;;;;;;5063909;28;20136;-68
2023/10/15 13:49:17;;;;;;;4.57;1.00;;;;;;;;;;5064279;28;20037;-69
2023/10/15 13:51:43;;;;;;;4.43;1.08;;;;;;;;;;5046862;28;20460;-69
2023/10/15 13:54:09;;;;;;;5.05;1.00;;;;;;;;;;5065849;28;20033;-69
2023/10/15 13:56:35;;;;;;;6.07;1.27;;;;;;;;;;5046727;28;20416;-69
2023/10/15 13:59:01;;;;;;;4.82;1.27;;;;;;;;;;5060678;28;20037;-69
2023/10/15 14:01:27;;;;;;;3.17;1.08;;;;;;;;;;5066253;28;20044;-69
2023/10/15 14:03:54;;;;;;;3.53;1.10;;;;;;;;;;5064423;28;20101;-68
2023/10/15 14:06:20;;;;;;;6.35;1.42;;;;;;;;;;5030699;28;20045;-68
2023/10/15 14:08:46;;;;;;;7.38;1.27;;;;;;;;;;5064039;28;20032;-69
2023/10/15 14:11:13;;;;;;;3.67;1.27;;;;;;;;;;5062325;28;20033;-69
2023/10/15 14:13:39;;;;;;;7.35;1.70;;;;;;;;;;5061809;28;20048;-68
2023/10/15 14:16:05;;;;;;;3.88;1.23;;;10.20;99.90;;;;;;5063803;28;20048;-69
2023/10/15 14:18:31;;;;;;;9.85;1.52;;;;;;;;;;5047021;28;20048;-77
2023/10/15 14:20:57;;;;;;;8.75;2.33;;;;;;;;;;5064075;28;20453;-68
2023/10/15 14:23:27;;;;;;;7.00;1.30;;;11.40;99.90;;;;;;5048288;28;20044;-69
2023/10/15 14:25:53;;;;;;;7.32;1.40;;;;;;;;;;5062937;28;20071;-68
2023/10/15 14:28:20;;;;;;;11.13;1.35;;;;;;;;;;5061675;28;20500;-69
2023/10/15 14:30:46;;;;;;;6.93;1.50;;;;;;;;;;5060447;28;20032;-69
2023/10/15 14:33:12;;;;;;;4.40;1.05;;;;;;;;;;5062555;28;20048;-69
2023/10/15 14:35:38;;;;;;;5.85;1.30;;;;;;;;;;5062741;28;20493;-69
2023/10/15 14:38:05;;;;;;;4.53;1.00;;;;;;;;;;5063413;28;20044;-69
2023/10/15 14:40:32;;;;;;;4.32;0.88;;;;;;;;;;5063948;28;20044;-69
2023/10/15 14:42:58;;;;;;;6.78;1.13;;;;;;;;;;5066659;28;20443;-69
2023/10/15 14:45:24;;;;;;;2.60;1.00;;;;;;;;;;5058852;28;20127;-69
2023/10/15 14:47:50;;;;;;;4.03;1.15;;;;;;;;;;5045394;28;20080;-68